createdAt,value
2022-10-18T00:01:19.000Z,60.67
2022-10-18T00:03:45.000Z,54.4
2022-10-18T00:06:11.000Z,55.43
2022-10-18T00:08:37.000Z,58.55
2022-10-18T00:11:04.000Z,59.23
2022-10-18T00:13:29.000Z,57.23
2022-10-18T00:15:56.000Z,52.5
2022-10-18T00:18:26.000Z,48.92
2022-10-18T00:20:48.000Z,52.87
2022-10-18T00:23:14.000Z,38.6
2022-10-18T00:25:39.000Z,38.85
2022-10-18T00:28:07.000Z,33.48
2022-10-18T00:30:31.000Z,34.93
2022-10-18T00:32:57.000Z,37.2
2022-10-18T00:35:23.000Z,34.5
2022-10-18T00:37:48.000Z,36.88
2022-10-18T00:40:16.000Z,37.5
2022-10-18T00:42:41.000Z,39.23
2022-10-18T00:45:08.000Z,40.55
2022-10-18T00:47:34.000Z,41.08
2022-10-18T00:49:59.000Z,45.2
2022-10-18T00:52:25.000Z,45.45
2022-10-18T00:54:50.000Z,45.25
2022-10-18T00:57:17.000Z,46.93
2022-10-18T00:59:43.000Z,49.6
2022-10-18T01:02:09.000Z,50.23
2022-10-18T01:04:34.000Z,48.33
2022-10-18T01:07:00.000Z,51.57
2022-10-18T01:09:27.000Z,49.23
2022-10-18T01:11:52.000Z,46.5
2022-10-18T01:14:20.000Z,42.9
2022-10-18T01:16:47.000Z,49.93
2022-10-18T01:19:13.000Z,50.48
2022-10-18T01:21:39.000Z,51.92
2022-10-18T01:24:07.000Z,54.23
2022-10-18T01:26:34.000Z,44.9
2022-10-18T01:28:58.000Z,48.73
2022-10-18T01:31:25.000Z,49.17
2022-10-18T01:33:51.000Z,46.23
2022-10-18T01:36:17.000Z,48.75
2022-10-18T01:38:44.000Z,51.4
2022-10-18T01:41:09.000Z,50.38
2022-10-18T01:43:35.000Z,44.45
2022-10-18T01:46:00.000Z,46.7
2022-10-18T01:48:26.000Z,50.3
2022-10-18T01:50:53.000Z,47.83
2022-10-18T01:53:18.000Z,51.92
2022-10-18T01:55:48.000Z,48.2
2022-10-18T01:58:10.000Z,49.53
2022-10-18T02:00:36.000Z,49.03
2022-10-18T02:03:02.000Z,47.88
2022-10-18T02:05:28.000Z,52.7
2022-10-18T02:07:53.000Z,57.77
2022-10-18T02:10:21.000Z,59.07
2022-10-18T02:12:47.000Z,63.28
2022-10-18T02:15:13.000Z,65.15
2022-10-18T02:17:39.000Z,66.77
2022-10-18T02:22:32.000Z,68.3
2022-10-18T02:24:58.000Z,70.77
2022-10-18T02:27:23.000Z,73
2022-10-18T02:29:49.000Z,64.77
2022-10-18T02:32:15.000Z,68.62
2022-10-18T02:34:41.000Z,71.77
2022-10-18T02:37:06.000Z,67.62
2022-10-18T02:39:32.000Z,64.23
2022-10-18T02:41:59.000Z,64.37
2022-10-18T02:44:24.000Z,69.72
2022-10-18T02:46:51.000Z,73.55
2022-10-18T02:49:16.000Z,74.5
2022-10-18T02:51:41.000Z,78.8
2022-10-18T02:54:08.000Z,73.42
2022-10-18T02:58:59.000Z,75.55
2022-10-18T03:01:25.000Z,80.42
2022-10-18T03:03:51.000Z,85.32
2022-10-18T03:06:18.000Z,86.9
2022-10-18T03:08:43.000Z,89.4
2022-10-18T03:11:09.000Z,85.42
2022-10-18T03:13:36.000Z,87.55
2022-10-18T03:16:00.000Z,83.3
2022-10-18T03:18:31.000Z,78.73
2022-10-18T03:20:57.000Z,87.25
2022-10-18T03:23:23.000Z,88.1
2022-10-18T03:25:49.000Z,89.32
2022-10-18T03:28:16.000Z,84.13
2022-10-18T03:30:41.000Z,88.03
2022-10-18T03:33:08.000Z,85.2
2022-10-18T03:35:33.000Z,84.27
2022-10-18T03:37:59.000Z,84.03
2022-10-18T03:40:27.000Z,86.3
2022-10-18T03:42:51.000Z,73.97
2022-10-18T03:45:19.000Z,67.2
2022-10-18T03:47:44.000Z,68.28
2022-10-18T03:50:10.000Z,63.13
2022-10-18T03:52:35.000Z,61.63
2022-10-18T03:55:02.000Z,65.77
2022-10-18T03:57:28.000Z,64.22
2022-10-18T03:59:54.000Z,61.3
2022-10-18T04:02:19.000Z,61.4
2022-10-18T04:04:48.000Z,53.52
2022-10-18T04:07:13.000Z,52.85
2022-10-18T04:09:40.000Z,58
2022-10-18T04:12:07.000Z,44.98
2022-10-18T04:14:31.000Z,43.9
2022-10-18T04:16:56.000Z,42.58
2022-10-18T04:19:23.000Z,46.9
2022-10-18T04:21:49.000Z,46.93
2022-10-18T04:24:15.000Z,41.33
2022-10-18T04:26:42.000Z,38.6
2022-10-18T04:29:07.000Z,34
2022-10-18T04:31:33.000Z,35.7
2022-10-18T04:33:57.000Z,36.13
2022-10-18T04:36:23.000Z,37.33
2022-10-18T04:38:50.000Z,32.23
2022-10-18T04:41:14.000Z,36.27
2022-10-18T04:46:13.000Z,38.08
2022-10-18T04:48:39.000Z,37.53
2022-10-18T04:51:05.000Z,37.75
2022-10-18T04:53:31.000Z,34.9
2022-10-18T04:55:56.000Z,36.35
2022-10-18T04:58:23.000Z,35.45
2022-10-18T05:00:48.000Z,34.63
2022-10-18T05:03:14.000Z,34
2022-10-18T05:05:40.000Z,36.85
2022-10-18T05:08:08.000Z,40.92
2022-10-18T05:10:34.000Z,64.3
2022-10-18T05:12:59.000Z,112.05
2022-10-18T05:15:25.000Z,92.65
2022-10-18T05:17:51.000Z,84.55
2022-10-18T05:20:21.000Z,74.07
2022-10-18T05:22:45.000Z,59.05
2022-10-18T05:25:12.000Z,49.93
2022-10-18T05:27:36.000Z,46.87
2022-10-18T05:30:04.000Z,37.37
2022-10-18T05:32:30.000Z,38.95
2022-10-18T05:34:57.000Z,35.98
2022-10-18T05:37:23.000Z,35.47
2022-10-18T05:39:51.000Z,34.4
2022-10-18T05:42:17.000Z,37.17
2022-10-18T05:44:42.000Z,39.65
2022-10-18T05:47:09.000Z,49.95
2022-10-18T05:49:34.000Z,32.97
2022-10-18T05:52:00.000Z,31.47
2022-10-18T05:54:26.000Z,30.88
2022-10-18T05:56:51.000Z,30.25
2022-10-18T05:59:17.000Z,31.2
2022-10-18T06:01:44.000Z,30.27
2022-10-18T06:04:10.000Z,32.63
2022-10-18T06:06:35.000Z,32.37
2022-10-18T06:09:01.000Z,34.13
2022-10-18T06:11:27.000Z,31.6
2022-10-18T06:13:54.000Z,31.67
2022-10-18T06:16:19.000Z,31.3
2022-10-18T06:18:45.000Z,29.82
2022-10-18T06:21:12.000Z,34.03
2022-10-18T06:23:37.000Z,28.97
2022-10-18T06:26:08.000Z,32.03
2022-10-18T06:28:32.000Z,31.27
2022-10-18T06:30:57.000Z,28.45
2022-10-18T06:33:24.000Z,33.65
2022-10-18T06:35:50.000Z,34.25
2022-10-18T06:38:15.000Z,32.08
2022-10-18T06:40:42.000Z,36.5
2022-10-18T06:43:07.000Z,37
2022-10-18T06:45:33.000Z,31.87
2022-10-18T06:47:59.000Z,30.17
2022-10-18T06:50:25.000Z,31.45
2022-10-18T06:52:51.000Z,35.33
2022-10-18T06:55:18.000Z,33.7
2022-10-18T06:57:43.000Z,30.85
2022-10-18T07:00:16.000Z,33.1
2022-10-18T07:02:36.000Z,35.2
2022-10-18T07:05:02.000Z,35.8
2022-10-18T07:07:29.000Z,36.03
2022-10-18T07:09:53.000Z,40
2022-10-18T07:12:21.000Z,43.3
2022-10-18T07:14:46.000Z,44.15
2022-10-18T07:17:13.000Z,44.63
2022-10-18T07:19:38.000Z,45.9
2022-10-18T07:22:04.000Z,48.75
2022-10-18T07:26:59.000Z,43.73
2022-10-18T07:29:26.000Z,50.03
2022-10-18T07:31:53.000Z,48.5
2022-10-18T07:34:20.000Z,50.23
2022-10-18T07:36:49.000Z,46.13
2022-10-18T07:39:17.000Z,42.13
2022-10-18T07:41:42.000Z,41.18
2022-10-18T07:44:10.000Z,37.8
2022-10-18T07:46:35.000Z,36.48
2022-10-18T07:49:02.000Z,33.2
2022-10-18T07:51:28.000Z,37.2
2022-10-18T07:53:54.000Z,32.63
2022-10-18T07:56:20.000Z,35.37
2022-10-18T07:58:46.000Z,33.85
2022-10-18T08:01:12.000Z,38.67
2022-10-18T08:03:38.000Z,40.3
2022-10-18T08:06:12.000Z,47.27
2022-10-18T08:08:39.000Z,47.08
2022-10-18T08:11:06.000Z,48.35
2022-10-18T08:13:31.000Z,48.77
2022-10-18T08:15:57.000Z,45.03
2022-10-18T08:18:23.000Z,50.12
2022-10-18T08:20:49.000Z,47.55
2022-10-18T08:23:15.000Z,47.53
2022-10-18T08:25:41.000Z,49.73
2022-10-18T08:28:11.000Z,56.2
2022-10-18T08:30:36.000Z,57.13
2022-10-18T08:33:02.000Z,54.55
2022-10-18T08:37:56.000Z,65.95
2022-10-18T08:40:23.000Z,63.2
2022-10-18T08:42:53.000Z,65.45
2022-10-18T08:45:22.000Z,62.5
2022-10-18T08:47:49.000Z,67.92
2022-10-18T08:50:18.000Z,67.05
2022-10-18T08:52:50.000Z,70.55
2022-10-18T08:55:18.000Z,75.1
2022-10-18T09:02:49.000Z,66.75
2022-10-18T09:05:23.000Z,72.12
2022-10-18T09:07:49.000Z,66.5
2022-10-18T09:10:16.000Z,72.07
2022-10-18T09:12:41.000Z,70.3
2022-10-18T09:15:10.000Z,65.72
2022-10-18T09:17:33.000Z,64.8
2022-10-18T09:22:26.000Z,60.25
2022-10-18T09:24:51.000Z,53.42
2022-10-18T09:27:19.000Z,58.83
2022-10-18T09:32:19.000Z,48.95
2022-10-18T09:34:46.000Z,45.55
2022-10-18T09:37:13.000Z,50.63
2022-10-18T09:39:38.000Z,47.27
2022-10-18T09:42:04.000Z,43.98
2022-10-18T09:44:30.000Z,50.23
2022-10-18T09:47:05.000Z,43.68
2022-10-18T09:49:31.000Z,47.13
2022-10-18T09:51:59.000Z,46.07
2022-10-18T09:54:25.000Z,46.58
2022-10-18T09:56:52.000Z,45.08
2022-10-18T09:59:17.000Z,48.17
2022-10-18T10:01:43.000Z,47.27
2022-10-18T10:04:14.000Z,46.6
2022-10-18T10:06:47.000Z,45.3
2022-10-18T10:09:15.000Z,53.1
2022-10-18T10:11:49.000Z,52.87
2022-10-18T10:16:43.000Z,49.1
2022-10-18T10:19:21.000Z,52.4
2022-10-18T10:21:47.000Z,49.03
2022-10-18T10:24:14.000Z,52.8
2022-10-18T10:26:45.000Z,52.05
2022-10-18T10:29:12.000Z,57.9
2022-10-18T10:34:16.000Z,60.12
2022-10-18T10:36:41.000Z,63.63
2022-10-18T10:39:13.000Z,62.8
2022-10-18T10:41:45.000Z,67.58
2022-10-18T10:44:15.000Z,68.07
2022-10-18T10:46:39.000Z,64.95
2022-10-18T10:49:08.000Z,53.08
2022-10-18T10:51:34.000Z,50.85
2022-10-18T10:53:59.000Z,51.08
2022-10-18T10:56:25.000Z,51.97
2022-10-18T10:58:54.000Z,48.45
2022-10-18T11:01:19.000Z,46.75
2022-10-18T11:03:46.000Z,47.6
2022-10-18T11:06:11.000Z,48.13
2022-10-18T11:08:38.000Z,46.85
2022-10-18T11:11:08.000Z,47.53
2022-10-18T11:13:34.000Z,44.73
2022-10-18T11:16:02.000Z,46.47
2022-10-18T11:18:28.000Z,44.13
2022-10-18T11:20:56.000Z,53.35
2022-10-18T11:23:29.000Z,45.43
2022-10-18T11:25:56.000Z,56.65
2022-10-18T11:28:25.000Z,41.92
2022-10-18T11:30:51.000Z,52.1
2022-10-18T11:33:20.000Z,51.53
2022-10-18T11:35:46.000Z,48.68
2022-10-18T11:38:12.000Z,49.85
2022-10-18T11:40:40.000Z,47.8
2022-10-18T11:43:06.000Z,48.03
2022-10-18T11:45:32.000Z,53.7
2022-10-18T11:47:57.000Z,50.92
2022-10-18T11:50:25.000Z,50.25
2022-10-18T11:52:55.000Z,53.17
2022-10-18T11:55:21.000Z,53.75
2022-10-18T11:57:48.000Z,53.4
2022-10-18T12:02:39.000Z,61.77
2022-10-18T12:05:07.000Z,65.6
2022-10-18T12:07:32.000Z,62.87
2022-10-18T12:09:58.000Z,63.53
2022-10-18T12:12:26.000Z,66.73
2022-10-18T12:14:52.000Z,64.6
2022-10-18T12:17:19.000Z,64.9
2022-10-18T12:19:45.000Z,61.8
2022-10-18T12:22:14.000Z,62.95
2022-10-18T12:24:37.000Z,58.1
2022-10-18T12:27:05.000Z,57.53
2022-10-18T12:29:34.000Z,56.98
2022-10-18T12:31:56.000Z,55.9
2022-10-18T12:34:23.000Z,58.5
2022-10-18T12:36:48.000Z,54.83
2022-10-18T12:39:14.000Z,58.83
2022-10-18T12:44:11.000Z,57.73
2022-10-18T12:46:39.000Z,53.63
2022-10-18T12:49:04.000Z,56.48
2022-10-18T12:51:31.000Z,54.63
2022-10-18T12:53:57.000Z,52.7
2022-10-18T12:56:24.000Z,56.9
2022-10-18T12:58:52.000Z,67.8
2022-10-18T13:01:17.000Z,62.08
2022-10-18T13:03:42.000Z,58.8
2022-10-18T13:08:39.000Z,58.23
2022-10-18T13:11:09.000Z,61.9
2022-10-18T13:13:35.000Z,63.58
2022-10-18T13:16:02.000Z,67.03
2022-10-18T13:18:30.000Z,70.4
2022-10-18T13:20:57.000Z,72.08
2022-10-18T13:23:23.000Z,79.7
2022-10-18T13:25:54.000Z,83.55
2022-10-18T13:28:18.000Z,76.5
2022-10-18T13:30:47.000Z,76.73
2022-10-18T13:33:14.000Z,80
2022-10-18T13:35:44.000Z,84.17
2022-10-18T13:38:10.000Z,86.27
2022-10-18T13:40:36.000Z,83.03
2022-10-18T13:43:02.000Z,85.53
2022-10-18T13:47:54.000Z,88.6
2022-10-18T13:52:46.000Z,83.97
2022-10-18T13:55:14.000Z,83.47
2022-10-18T13:57:38.000Z,81.8
2022-10-18T14:00:15.000Z,86.47
2022-10-18T14:02:37.000Z,89.42
2022-10-18T14:05:04.000Z,90.95
2022-10-18T14:07:30.000Z,85.15
2022-10-18T14:09:57.000Z,89.9
2022-10-18T14:12:23.000Z,88.1
2022-10-18T14:14:54.000Z,90.72
2022-10-18T14:17:22.000Z,88.78
2022-10-18T14:19:48.000Z,91.75
2022-10-18T14:22:13.000Z,84.8
2022-10-18T14:24:40.000Z,88.03
2022-10-18T14:27:05.000Z,91.82
2022-10-18T14:29:31.000Z,84.65
2022-10-18T14:31:56.000Z,89.4
2022-10-18T14:34:22.000Z,99.87
2022-10-18T14:36:47.000Z,87.6
2022-10-18T14:39:13.000Z,92.92
2022-10-18T14:41:42.000Z,95.15
2022-10-18T14:44:09.000Z,94.7
2022-10-18T14:46:34.000Z,91.45
2022-10-18T14:49:01.000Z,98.95
2022-10-18T14:51:25.000Z,98.73
2022-10-18T14:53:52.000Z,90.33
2022-10-18T14:56:17.000Z,92.17
2022-10-18T14:58:43.000Z,87.05
2022-10-18T15:01:09.000Z,88
2022-10-18T15:03:35.000Z,90.42
2022-10-18T15:06:02.000Z,90.73
2022-10-18T15:08:31.000Z,84.07
2022-10-18T15:10:56.000Z,87.95
2022-10-18T15:13:22.000Z,90.03
2022-10-18T15:15:48.000Z,90.03
2022-10-18T15:18:15.000Z,89.2
2022-10-18T15:20:42.000Z,87.4
2022-10-18T15:23:09.000Z,94.23
2022-10-18T15:25:34.000Z,86.5
2022-10-18T15:30:31.000Z,83.37
2022-10-18T15:32:51.000Z,89.6
2022-10-18T15:35:18.000Z,86.43
2022-10-18T15:37:43.000Z,78.63
2022-10-18T15:40:14.000Z,81.53
2022-10-18T15:42:35.000Z,81.6
2022-10-18T15:45:05.000Z,83.37
2022-10-18T15:47:28.000Z,83.58
2022-10-18T15:49:54.000Z,82.4
2022-10-18T15:52:19.000Z,81.37
2022-10-18T15:57:10.000Z,79.53
2022-10-18T15:59:37.000Z,82.17
2022-10-18T16:02:03.000Z,74.8
2022-10-18T16:04:28.000Z,74.1
2022-10-18T16:06:54.000Z,80.83
2022-10-18T16:09:20.000Z,78.2
2022-10-18T16:11:50.000Z,76.95
2022-10-18T16:14:13.000Z,72.87
2022-10-18T16:16:40.000Z,74.07
2022-10-18T16:19:06.000Z,72.85
2022-10-18T16:21:31.000Z,75.5
2022-10-18T16:23:56.000Z,71.65
2022-10-18T16:26:22.000Z,80.42
2022-10-18T16:28:48.000Z,77
2022-10-18T16:33:40.000Z,70.15
2022-10-18T16:36:07.000Z,72.15
2022-10-18T16:38:32.000Z,75.92
2022-10-18T16:40:58.000Z,77.58
2022-10-18T16:43:24.000Z,78.4
2022-10-18T16:45:53.000Z,80.62
2022-10-18T16:48:18.000Z,73.12
2022-10-18T16:50:45.000Z,74.65
2022-10-18T16:53:09.000Z,81.35
2022-10-18T16:55:34.000Z,77.67
2022-10-18T16:57:59.000Z,78.7
2022-10-18T17:00:25.000Z,77.22
2022-10-18T17:02:51.000Z,76.13
2022-10-18T17:05:17.000Z,75.5
2022-10-18T17:07:43.000Z,79.53
2022-10-18T17:10:12.000Z,84.52
2022-10-18T17:12:35.000Z,78.85
2022-10-18T17:15:03.000Z,78.57
2022-10-18T17:17:27.000Z,73.15
2022-10-18T17:19:53.000Z,75.55
2022-10-18T17:22:19.000Z,80.4
2022-10-18T17:24:45.000Z,75.12
2022-10-18T17:27:11.000Z,78.57
2022-10-18T17:29:39.000Z,80.9
2022-10-18T17:32:04.000Z,76.62
2022-10-18T17:34:28.000Z,75.15
2022-10-18T17:36:55.000Z,77.8
2022-10-18T17:39:20.000Z,78.67
2022-10-18T17:41:48.000Z,83.42
2022-10-18T17:44:15.000Z,79.15
2022-10-18T17:46:38.000Z,83.78
2022-10-18T17:49:06.000Z,80.43
2022-10-18T17:51:30.000Z,86.5
2022-10-18T17:53:56.000Z,86.87
2022-10-18T17:56:22.000Z,86.63
2022-10-18T17:58:50.000Z,80
2022-10-18T18:01:17.000Z,83.33
2022-10-18T18:03:42.000Z,81.63
2022-10-18T18:06:08.000Z,79.37
2022-10-18T18:08:34.000Z,76.5
2022-10-18T18:11:00.000Z,74.12
2022-10-18T18:13:26.000Z,75.77
2022-10-18T18:15:54.000Z,74.2
2022-10-18T18:18:18.000Z,75.77
2022-10-18T18:20:44.000Z,74.45
2022-10-18T18:23:10.000Z,73.65
2022-10-18T18:25:36.000Z,71.9
2022-10-18T18:28:03.000Z,77.87
2022-10-18T18:30:28.000Z,75.4
2022-10-18T18:32:53.000Z,72.4
2022-10-18T18:35:19.000Z,75
2022-10-18T18:37:46.000Z,70.7
2022-10-18T18:40:14.000Z,69.3
2022-10-18T18:42:38.000Z,69.67
2022-10-18T18:45:08.000Z,68.78
2022-10-18T18:47:30.000Z,73.2
2022-10-18T18:49:55.000Z,71.43
2022-10-18T18:52:21.000Z,75
2022-10-18T18:54:47.000Z,72.25
2022-10-18T18:59:39.000Z,75.42
2022-10-18T19:02:05.000Z,78.85
2022-10-18T19:04:30.000Z,73.8
2022-10-18T19:06:56.000Z,74.5
2022-10-18T19:09:24.000Z,74.03
2022-10-18T19:11:50.000Z,83.03
2022-10-18T19:14:15.000Z,74.47
2022-10-18T19:16:41.000Z,73
2022-10-18T19:19:06.000Z,75.95
2022-10-18T19:21:33.000Z,71.55
2022-10-18T19:23:58.000Z,73.8
2022-10-18T19:26:25.000Z,73.8
2022-10-18T19:28:51.000Z,76.75
2022-10-18T19:31:18.000Z,76.77
2022-10-18T19:33:41.000Z,73.22
2022-10-18T19:36:08.000Z,68.97
2022-10-18T19:38:34.000Z,72.97
2022-10-18T19:41:00.000Z,70.25
2022-10-18T19:43:26.000Z,73.83
2022-10-18T19:45:53.000Z,71.4
2022-10-18T19:48:19.000Z,72.47
2022-10-18T19:50:53.000Z,74.77
2022-10-18T19:53:10.000Z,73.37
2022-10-18T19:55:36.000Z,75.07
2022-10-18T19:58:01.000Z,79.77
2022-10-18T20:00:33.000Z,78.87
2022-10-18T20:02:53.000Z,75.4
2022-10-18T20:05:19.000Z,74.4
2022-10-18T20:07:45.000Z,74.1
2022-10-18T20:10:13.000Z,74
2022-10-18T20:12:38.000Z,77.33
2022-10-18T20:15:07.000Z,81.23
2022-10-18T20:17:30.000Z,77.8
2022-10-18T20:19:56.000Z,78.47
2022-10-18T20:22:22.000Z,91.15
2022-10-18T20:24:47.000Z,99.42
2022-10-18T20:27:14.000Z,94.73
2022-10-18T20:29:40.000Z,101.47
2022-10-18T20:32:06.000Z,105.17
2022-10-18T20:34:31.000Z,113.28
2022-10-18T20:36:58.000Z,114.23
2022-10-18T20:39:22.000Z,116.17
2022-10-18T20:41:48.000Z,124.8
2022-10-18T20:44:15.000Z,123.25
2022-10-18T20:46:41.000Z,128.18
2022-10-18T20:49:08.000Z,125.87
2022-10-18T20:51:34.000Z,121.27
2022-10-18T20:53:59.000Z,126.67
2022-10-18T20:56:25.000Z,124.58
2022-10-18T20:58:50.000Z,124.85
2022-10-18T21:03:43.000Z,126.33
2022-10-18T21:06:09.000Z,124.62
2022-10-18T21:08:35.000Z,121.82
2022-10-18T21:11:02.000Z,115.37
2022-10-18T21:13:27.000Z,121.5
2022-10-18T21:15:54.000Z,115.2
2022-10-18T21:18:19.000Z,122.75
2022-10-18T21:20:44.000Z,119.4
2022-10-18T21:23:11.000Z,115.8
2022-10-18T21:25:40.000Z,108
2022-10-18T21:28:03.000Z,109.4
2022-10-18T21:30:28.000Z,109.22
2022-10-18T21:32:55.000Z,104.27
2022-10-18T21:35:22.000Z,103.22
2022-10-18T21:37:47.000Z,104.6
2022-10-18T21:40:15.000Z,105.22
2022-10-18T21:42:38.000Z,103.32
2022-10-18T21:45:08.000Z,101.3
2022-10-18T21:47:31.000Z,95.38
2022-10-18T21:49:57.000Z,90.75
2022-10-18T21:52:22.000Z,90.95
2022-10-18T21:54:48.000Z,92.88
2022-10-18T21:57:15.000Z,93.7
2022-10-18T21:59:40.000Z,87.1
2022-10-18T22:02:50.000Z,92.75
2022-10-18T22:04:47.000Z,89.7
2022-10-18T22:06:59.000Z,83.5
2022-10-18T22:09:25.000Z,81.67
2022-10-18T22:11:52.000Z,80.95
2022-10-18T22:14:18.000Z,77.75
2022-10-18T22:16:43.000Z,74.1
2022-10-18T22:19:11.000Z,74.82
2022-10-18T22:21:35.000Z,71.6
2022-10-18T22:24:01.000Z,70.45
2022-10-18T22:26:26.000Z,69.42
2022-10-18T22:28:52.000Z,69.3
2022-10-18T22:31:19.000Z,71.22
2022-10-18T22:33:45.000Z,77.55
2022-10-18T22:36:10.000Z,74.32
2022-10-18T22:38:37.000Z,71.45
2022-10-18T22:43:28.000Z,65.5
2022-10-18T22:45:55.000Z,70
2022-10-18T22:48:21.000Z,69.12
2022-10-18T22:50:49.000Z,75.12
2022-10-18T22:53:12.000Z,86.9
2022-10-18T22:55:38.000Z,94.3
2022-10-18T22:58:04.000Z,89.25
2022-10-18T23:00:31.000Z,90.45
2022-10-18T23:02:56.000Z,88
2022-10-18T23:05:22.000Z,85.38
2022-10-18T23:07:48.000Z,77.3
2022-10-18T23:10:15.000Z,77.42
2022-10-18T23:12:40.000Z,73.15
2022-10-18T23:15:07.000Z,73.6
2022-10-18T23:19:57.000Z,65.37
2022-10-18T23:22:24.000Z,71.77
2022-10-18T23:24:49.000Z,65.13
2022-10-18T23:27:19.000Z,62.23
2022-10-18T23:29:44.000Z,64.97
2022-10-18T23:32:11.000Z,61.47
2022-10-18T23:34:36.000Z,66.2
2022-10-18T23:37:04.000Z,70.17
2022-10-18T23:39:28.000Z,69.95
2022-10-18T23:41:54.000Z,80.65
2022-10-18T23:44:21.000Z,83
2022-10-18T23:46:47.000Z,81.4
2022-10-18T23:49:14.000Z,78.4
2022-10-18T23:51:38.000Z,84.33
2022-10-18T23:54:05.000Z,89.3
2022-10-18T23:56:30.000Z,90.55
2022-10-18T23:58:56.000Z,85.5
